createdAt,value
2023-03-27T00:00:51.037Z,30.56
2023-03-27T00:02:56.304Z,30.65
2023-03-27T00:05:01.360Z,30.72
2023-03-27T00:07:06.444Z,30.77
2023-03-27T00:09:11.482Z,30.86
2023-03-27T00:11:16.462Z,30.95
2023-03-27T00:13:21.503Z,30.99
2023-03-27T00:15:26.464Z,31.03
2023-03-27T00:17:31.567Z,31.13
2023-03-27T00:19:36.579Z,31.19
2023-03-27T00:21:41.668Z,31.23
2023-03-27T00:23:46.700Z,31.25
2023-03-27T00:25:51.772Z,31.34
2023-03-27T00:27:56.764Z,31.35
2023-03-27T00:30:01.804Z,31.45
2023-03-27T00:32:06.803Z,31.51
2023-03-27T00:34:11.824Z,31.44
2023-03-27T00:36:16.785Z,31.46
2023-03-27T00:38:21.830Z,31.52
2023-03-27T00:40:26.801Z,31.55
2023-03-27T00:42:31.815Z,31.68
2023-03-27T00:44:39.722Z,31.67
2023-03-27T00:46:44.993Z,31.67
2023-03-27T00:48:49.987Z,31.67
2023-03-27T00:50:55.420Z,31.72
2023-03-27T00:53:00.614Z,31.74
2023-03-27T00:55:05.589Z,31.68
2023-03-27T00:57:10.778Z,31.8
2023-03-27T00:59:15.866Z,31.77
2023-03-27T01:01:21.061Z,31.84
2023-03-27T01:03:26.361Z,31.86
2023-03-27T01:05:31.444Z,31.87
2023-03-27T01:07:36.508Z,31.86
2023-03-27T01:09:41.524Z,31.83
2023-03-27T01:11:46.529Z,31.82
2023-03-27T01:13:51.501Z,31.86
2023-03-27T01:15:56.556Z,31.87
2023-03-27T01:18:01.678Z,31.81
2023-03-27T01:20:06.688Z,31.77
2023-03-27T01:22:11.739Z,31.66
2023-03-27T01:24:16.855Z,31.69
2023-03-27T01:26:38.550Z,31.67
2023-03-27T01:28:43.542Z,31.69
2023-03-27T01:30:48.483Z,31.69
2023-03-27T01:32:53.725Z,31.56
2023-03-27T01:35:06.120Z,31.47
2023-03-27T01:37:11.119Z,31.46
2023-03-27T01:39:16.093Z,31.48
2023-03-27T01:41:21.126Z,31.42
2023-03-27T01:43:26.120Z,31.4
2023-03-27T01:45:31.113Z,31.36
2023-03-27T01:47:36.329Z,31.37
2023-03-27T01:49:41.355Z,31.35
2023-03-27T01:51:46.365Z,31.37
2023-03-27T01:53:51.452Z,31.39
2023-03-27T01:55:56.532Z,31.39
2023-03-27T01:58:01.631Z,31.35
2023-03-27T02:00:21.545Z,31.36
2023-03-27T02:02:26.733Z,31.27
2023-03-27T02:04:31.837Z,31.3
2023-03-27T02:06:36.955Z,31.26
2023-03-27T02:08:41.976Z,31.25
2023-03-27T02:10:46.954Z,31.25
2023-03-27T02:12:51.939Z,31.28
2023-03-27T02:14:57.024Z,31.21
2023-03-27T02:17:27.847Z,31.08
2023-03-27T02:19:32.829Z,31.01
2023-03-27T02:21:37.792Z,30.99
2023-03-27T02:23:42.905Z,30.93
2023-03-27T02:25:47.934Z,30.9
2023-03-27T02:27:52.889Z,30.91
2023-03-27T02:29:57.829Z,30.88
2023-03-27T02:32:02.981Z,30.84
2023-03-27T02:34:08.044Z,30.84
2023-03-27T02:36:13.938Z,30.79
2023-03-27T02:38:18.965Z,30.81
2023-03-27T02:40:23.948Z,30.75
2023-03-27T02:42:28.954Z,30.81
2023-03-27T02:44:33.924Z,30.82
2023-03-27T02:46:38.900Z,30.76
2023-03-27T02:48:43.927Z,30.75
2023-03-27T02:50:48.924Z,30.79
2023-03-27T02:52:53.875Z,30.75
2023-03-27T02:54:58.857Z,30.68
2023-03-27T02:57:04.003Z,30.69
2023-03-27T02:59:09.010Z,30.71
2023-03-27T03:01:14.148Z,30.67
2023-03-27T03:03:19.568Z,30.61
2023-03-27T03:05:24.744Z,30.62
2023-03-27T03:07:29.702Z,30.69
2023-03-27T03:09:41.496Z,30.66
2023-03-27T03:11:46.508Z,30.67
2023-03-27T03:13:51.591Z,30.67
2023-03-27T03:15:56.631Z,30.53
2023-03-27T03:18:01.751Z,30.41
2023-03-27T03:20:06.777Z,30.28
2023-03-27T03:22:11.769Z,30.09
2023-03-27T03:24:16.705Z,29.92
2023-03-27T03:26:21.789Z,29.77
2023-03-27T03:28:26.762Z,29.66
2023-03-27T03:30:31.836Z,29.59
2023-03-27T03:32:36.933Z,29.45
2023-03-27T03:34:41.921Z,29.39
2023-03-27T03:38:04.680Z,29.19
2023-03-27T03:40:09.789Z,29.24
2023-03-27T03:42:25.716Z,28.99
2023-03-27T03:44:30.736Z,28.89
2023-03-27T03:46:35.927Z,28.85
2023-03-27T03:48:40.957Z,28.74
2023-03-27T03:50:45.901Z,28.61
2023-03-27T03:52:50.896Z,28.58
2023-03-27T03:54:55.924Z,28.57
2023-03-27T03:57:01.466Z,28.6
2023-03-27T03:59:06.566Z,28.58
2023-03-27T04:01:11.531Z,28.65
2023-03-27T04:03:17.014Z,28.65
2023-03-27T04:05:22.054Z,28.62
2023-03-27T04:07:27.146Z,28.6
2023-03-27T04:09:32.107Z,28.56
2023-03-27T04:11:37.091Z,28.55
2023-03-27T04:13:42.117Z,28.59
2023-03-27T04:15:47.432Z,28.59
2023-03-27T04:17:52.801Z,28.46
2023-03-27T04:19:57.798Z,28.54
2023-03-27T04:22:02.731Z,28.54
2023-03-27T04:24:07.717Z,28.51
2023-03-27T04:26:12.838Z,28.43
2023-03-27T04:28:17.956Z,28.34
2023-03-27T04:30:22.988Z,28.34
2023-03-27T04:32:28.112Z,28.31
2023-03-27T04:34:33.158Z,28.32
2023-03-27T04:36:38.259Z,28.21
2023-03-27T04:38:43.268Z,28.22
2023-03-27T04:40:48.252Z,28.26
2023-03-27T04:42:53.284Z,28.25
2023-03-27T04:44:58.286Z,28.23
2023-03-27T04:47:03.559Z,28.25
2023-03-27T04:49:08.660Z,28.23
2023-03-27T04:51:13.782Z,28.21
2023-03-27T04:53:18.835Z,28.29
2023-03-27T04:55:23.834Z,28.24
2023-03-27T04:57:28.810Z,28.29
2023-03-27T04:59:33.859Z,28.22
2023-03-27T05:01:39.057Z,28.34
2023-03-27T05:03:44.332Z,28.34
2023-03-27T05:05:49.344Z,28.29
2023-03-27T05:07:54.363Z,28.23
2023-03-27T05:09:59.429Z,28.3
2023-03-27T05:12:04.400Z,28.3
2023-03-27T05:14:09.395Z,28.34
2023-03-27T05:16:14.559Z,28.25
2023-03-27T05:18:19.818Z,28.27
2023-03-27T05:20:24.988Z,28.36
2023-03-27T05:22:30.037Z,29.18
2023-03-27T05:24:35.049Z,29.24
2023-03-27T05:26:41.112Z,29.35
2023-03-27T05:28:46.106Z,29.33
2023-03-27T05:30:51.313Z,29.35
2023-03-27T05:32:56.446Z,29.39
2023-03-27T05:35:01.493Z,29.41
2023-03-27T05:37:06.626Z,29.43
2023-03-27T05:39:11.705Z,29.89
2023-03-27T05:41:16.822Z,30.54
2023-03-27T05:43:21.863Z,30.68
2023-03-27T05:45:26.982Z,30.76
2023-03-27T05:47:32.204Z,30.95
2023-03-27T05:49:37.270Z,31.31
2023-03-27T05:51:49.312Z,31.47
2023-03-27T05:53:54.351Z,31.88
2023-03-27T05:56:05.819Z,31.58
2023-03-27T05:58:10.858Z,31.68
2023-03-27T06:00:15.849Z,31.97
2023-03-27T06:02:23.958Z,32.27
2023-03-27T06:04:29.098Z,32.4
2023-03-27T06:06:36.339Z,32.58
2023-03-27T06:08:41.501Z,32.45
2023-03-27T06:10:46.505Z,32.48
2023-03-27T06:12:51.836Z,31.46
2023-03-27T06:14:56.832Z,32.55
2023-03-27T06:17:01.857Z,32.15
2023-03-27T06:19:06.959Z,32.34
2023-03-27T06:21:11.982Z,31.9
2023-03-27T06:23:17.161Z,32.15
2023-03-27T06:25:22.181Z,32.25
2023-03-27T06:27:27.227Z,31.7
2023-03-27T06:29:32.246Z,32.32
2023-03-27T06:31:37.544Z,32.46
2023-03-27T06:33:42.637Z,32.27
2023-03-27T06:35:55.695Z,32.39
2023-03-27T06:38:00.779Z,32.52
2023-03-27T06:40:05.917Z,32.5
2023-03-27T06:42:10.949Z,32.61
2023-03-27T06:44:16.268Z,32.55
2023-03-27T06:46:21.510Z,32.45
2023-03-27T06:48:27.239Z,32.49
2023-03-27T06:50:32.353Z,32.74
2023-03-27T06:52:37.311Z,32.69
2023-03-27T06:54:42.299Z,32.66
2023-03-27T06:56:47.379Z,32.56
2023-03-27T06:58:52.295Z,32.67
2023-03-27T07:00:57.378Z,32.44
2023-03-27T07:03:02.520Z,32.73
2023-03-27T07:05:08.437Z,32.62
2023-03-27T07:07:13.604Z,32.7
2023-03-27T07:09:18.576Z,32.78
2023-03-27T07:11:23.687Z,32.65
2023-03-27T07:13:28.758Z,32.62
2023-03-27T07:15:33.758Z,32.55
2023-03-27T07:17:51.163Z,32.71
2023-03-27T07:19:56.486Z,32.69
2023-03-27T07:22:01.557Z,32.78
2023-03-27T07:24:06.546Z,32.89
2023-03-27T07:26:11.681Z,33.05
2023-03-27T07:28:16.668Z,33.02
2023-03-27T07:30:21.749Z,32.98
2023-03-27T07:32:39.591Z,33.03
2023-03-27T07:34:44.747Z,32.83
2023-03-27T07:36:49.706Z,32.81
2023-03-27T07:38:55.222Z,33.01
2023-03-27T07:41:00.238Z,33.12
2023-03-27T07:43:05.226Z,32.92
2023-03-27T07:45:10.267Z,33.33
2023-03-27T07:47:15.296Z,33.2
2023-03-27T07:49:20.303Z,33.25
2023-03-27T07:51:44.279Z,33.25
2023-03-27T07:53:49.282Z,33.38
2023-03-27T07:55:54.505Z,32.86
2023-03-27T07:58:05.519Z,33.3
2023-03-27T08:00:10.615Z,33.24
2023-03-27T08:02:15.728Z,33.13
2023-03-27T08:04:21.181Z,33.2
2023-03-27T08:06:26.341Z,33.21
2023-03-27T08:08:31.492Z,32.94
2023-03-27T08:10:36.488Z,33.12
2023-03-27T08:12:41.520Z,33.37
2023-03-27T08:14:46.544Z,33.05
2023-03-27T08:16:52.267Z,33.32
2023-03-27T08:18:57.438Z,33.55
2023-03-27T08:21:02.524Z,33.61
2023-03-27T08:23:07.576Z,33.34
2023-03-27T08:25:12.960Z,33.41
2023-03-27T08:27:17.994Z,33.45
2023-03-27T08:29:23.057Z,33.35
2023-03-27T08:31:28.456Z,33.53
2023-03-27T08:33:33.652Z,33.46
2023-03-27T08:35:38.901Z,33.47
2023-03-27T08:37:44.089Z,33.51
2023-03-27T08:39:49.332Z,33.57
2023-03-27T08:41:54.385Z,33.57
2023-03-27T08:43:59.547Z,33.49
2023-03-27T08:46:04.682Z,33.41
2023-03-27T08:48:10.053Z,33.37
2023-03-27T08:50:15.138Z,33.41
2023-03-27T08:52:20.125Z,33.45
2023-03-27T08:54:25.189Z,33.58
2023-03-27T08:56:30.159Z,33.55
2023-03-27T08:58:35.198Z,33.56
2023-03-27T09:00:40.200Z,33.61
2023-03-27T09:02:45.520Z,33.65
2023-03-27T09:04:50.765Z,33.56
2023-03-27T09:06:55.727Z,33.81
2023-03-27T09:09:00.783Z,33.71
2023-03-27T09:11:06.238Z,33.89
2023-03-27T09:13:11.534Z,33.61
2023-03-27T09:15:16.740Z,33.68
2023-03-27T09:17:21.752Z,33.7
2023-03-27T09:19:26.770Z,33.76
2023-03-27T09:21:31.811Z,33.77
2023-03-27T09:23:36.816Z,33.77
2023-03-27T09:25:41.814Z,33.75
2023-03-27T09:27:46.894Z,33.56
2023-03-27T09:30:06.929Z,33.71
2023-03-27T09:32:12.053Z,33.57
2023-03-27T09:34:17.115Z,33.62
2023-03-27T09:36:22.134Z,33.67
2023-03-27T09:38:27.335Z,33.78
2023-03-27T09:40:32.329Z,33.65
2023-03-27T09:42:37.392Z,33.63
2023-03-27T09:44:42.468Z,33.63
2023-03-27T09:46:47.669Z,33.67
2023-03-27T09:48:52.710Z,33.79
2023-03-27T09:50:58.580Z,33.74
2023-03-27T09:53:03.722Z,33.85
2023-03-27T09:55:08.723Z,33.85
2023-03-27T09:57:14.096Z,33.74
2023-03-27T09:59:19.175Z,33.8
2023-03-27T10:01:24.419Z,33.79
2023-03-27T10:03:29.908Z,33.95
2023-03-27T10:05:34.977Z,33.75
2023-03-27T10:07:40.051Z,33.57
2023-03-27T10:09:45.145Z,33.73
2023-03-27T10:11:50.159Z,33.57
2023-03-27T10:13:55.186Z,33.77
2023-03-27T10:16:00.228Z,33.69
2023-03-27T10:18:05.379Z,33.9
2023-03-27T10:20:10.445Z,33.82
2023-03-27T10:22:17.032Z,33.91
2023-03-27T10:24:22.085Z,33.87
2023-03-27T10:26:27.107Z,33.63
2023-03-27T10:28:32.198Z,33.75
2023-03-27T10:30:37.211Z,33.83
2023-03-27T10:32:42.453Z,34.01
2023-03-27T10:34:47.465Z,33.68
2023-03-27T10:36:52.587Z,34.18
2023-03-27T10:38:57.588Z,34.15
2023-03-27T10:41:02.566Z,34.33
2023-03-27T10:43:07.962Z,34.4
2023-03-27T10:45:13.098Z,34.5
2023-03-27T10:47:18.080Z,34.61
2023-03-27T10:49:23.098Z,34.48
2023-03-27T10:51:47.849Z,34.68
2023-03-27T10:53:53.447Z,34.5
2023-03-27T10:55:58.611Z,34.58
2023-03-27T10:58:03.713Z,34.86
2023-03-27T11:00:08.734Z,34.75
2023-03-27T11:02:13.738Z,34.92
2023-03-27T11:04:18.897Z,34.82
2023-03-27T11:06:23.877Z,34.87
2023-03-27T11:08:28.890Z,34.82
2023-03-27T11:10:33.891Z,35
2023-03-27T11:12:38.985Z,35.01
2023-03-27T11:14:43.986Z,34.96
2023-03-27T11:16:49.085Z,34.91
2023-03-27T11:18:54.721Z,34.99
2023-03-27T11:21:00.191Z,34.99
2023-03-27T11:23:05.178Z,34.94
2023-03-27T11:25:10.276Z,34.99
2023-03-27T11:27:17.172Z,35.12
2023-03-27T11:29:22.192Z,34.86
2023-03-27T11:31:29.747Z,34.77
2023-03-27T11:33:34.916Z,34.75
2023-03-27T11:35:40.156Z,34.62
2023-03-27T11:37:45.224Z,34.58
2023-03-27T11:39:50.293Z,34.59
2023-03-27T11:41:55.371Z,34.42
2023-03-27T11:44:00.409Z,34.42
2023-03-27T11:46:05.538Z,33.49
2023-03-27T11:48:13.498Z,33.76
2023-03-27T11:50:18.666Z,33.8
2023-03-27T11:52:24.077Z,33.07
2023-03-27T11:54:29.099Z,33.2
2023-03-27T11:56:34.163Z,33.79
2023-03-27T11:58:39.188Z,32.9
2023-03-27T12:00:44.317Z,33.25
2023-03-27T12:02:49.848Z,33.77
2023-03-27T12:04:54.958Z,33.56
2023-03-27T12:07:09.778Z,33.49
2023-03-27T12:09:16.780Z,33.61
2023-03-27T12:11:22.068Z,33.67
2023-03-27T12:13:44.971Z,33.4
2023-03-27T12:15:52.832Z,33.5
2023-03-27T12:17:58.216Z,33.09
2023-03-27T12:20:03.302Z,33.32
2023-03-27T12:22:26.010Z,33.21
2023-03-27T12:24:31.007Z,33.3
2023-03-27T12:26:36.000Z,32.82
2023-03-27T12:28:43.414Z,32.68
2023-03-27T12:30:48.432Z,32.59
2023-03-27T12:32:58.942Z,32.2
2023-03-27T12:35:05.118Z,32.26
2023-03-27T12:37:10.256Z,32.73
2023-03-27T12:39:15.301Z,31.92
2023-03-27T12:41:20.335Z,32.11
2023-03-27T12:43:25.418Z,32.57
2023-03-27T12:45:30.613Z,32.51
2023-03-27T12:47:36.992Z,32.41
2023-03-27T12:49:49.884Z,32.33
2023-03-27T12:51:55.317Z,31.97
2023-03-27T12:54:00.308Z,31.96
2023-03-27T12:56:05.458Z,31.94
2023-03-27T12:58:10.933Z,31.86
2023-03-27T13:00:16.111Z,31.92
2023-03-27T13:02:21.442Z,31.99
2023-03-27T13:04:26.597Z,32.07
2023-03-27T13:06:31.797Z,32.17
2023-03-27T13:08:36.793Z,32.18
2023-03-27T13:10:41.856Z,31.93
2023-03-27T13:12:47.718Z,31.82
2023-03-27T13:14:52.785Z,31.72
2023-03-27T13:16:57.804Z,31.53
2023-03-27T13:19:02.944Z,31.48
2023-03-27T13:21:07.995Z,31.52
2023-03-27T13:23:13.109Z,29.6
2023-03-27T13:25:18.146Z,29.91
2023-03-27T13:27:23.274Z,30.5
2023-03-27T13:29:28.293Z,30.26
2023-03-27T13:31:33.524Z,30.51
2023-03-27T13:33:38.674Z,30.51
2023-03-27T13:35:43.859Z,30.44
2023-03-27T13:37:49.026Z,30.38
2023-03-27T13:39:54.042Z,30.25
2023-03-27T13:42:02.352Z,30.3
2023-03-27T13:44:07.558Z,30.22
2023-03-27T13:46:12.648Z,30.09
2023-03-27T13:48:17.661Z,30.13
2023-03-27T13:50:22.755Z,30.08
2023-03-27T13:52:27.728Z,29.93
2023-03-27T13:54:32.743Z,30.01
2023-03-27T13:56:37.898Z,30.11
2023-03-27T13:58:43.125Z,29.95
2023-03-27T14:00:48.232Z,30
2023-03-27T14:02:53.562Z,29.98
2023-03-27T14:04:58.732Z,30.06
2023-03-27T14:07:03.835Z,30.04
2023-03-27T14:09:08.822Z,30.15
2023-03-27T14:11:13.908Z,30.21
2023-03-27T14:13:19.090Z,30.38
2023-03-27T14:15:24.182Z,30.3
2023-03-27T14:17:29.431Z,30.22
2023-03-27T14:19:34.495Z,30.21
2023-03-27T14:21:41.533Z,30.19
2023-03-27T14:23:46.586Z,30.19
2023-03-27T14:25:51.734Z,30.12
2023-03-27T14:27:56.742Z,30.13
2023-03-27T14:30:01.834Z,30.16
2023-03-27T14:32:07.291Z,30.31
2023-03-27T14:34:12.439Z,30.25
2023-03-27T14:36:17.516Z,30.28
2023-03-27T14:38:22.545Z,30.47
2023-03-27T14:40:27.726Z,30.74
2023-03-27T14:42:35.564Z,29.36
2023-03-27T14:44:40.726Z,27.78
2023-03-27T14:46:45.722Z,29.56
2023-03-27T14:48:50.764Z,30.3
2023-03-27T14:50:56.381Z,30.62
2023-03-27T14:53:01.616Z,30.69
2023-03-27T14:55:06.753Z,31.16
2023-03-27T14:57:12.033Z,31.54
2023-03-27T14:59:17.090Z,31.45
2023-03-27T15:01:22.322Z,31.8
2023-03-27T15:03:27.757Z,31.8
2023-03-27T15:05:33.122Z,31.79
2023-03-27T15:07:38.144Z,31.81
2023-03-27T15:09:43.229Z,32.11
2023-03-27T15:11:48.297Z,32.27
2023-03-27T15:13:53.304Z,32.78
2023-03-27T15:15:59.224Z,32.87
2023-03-27T15:18:04.614Z,32.67
2023-03-27T15:20:09.791Z,33.04
2023-03-27T15:22:14.814Z,33.85
2023-03-27T15:24:20.118Z,33.19
2023-03-27T15:26:25.153Z,33.4
2023-03-27T15:28:30.197Z,33.25
2023-03-27T15:30:35.394Z,33.02
2023-03-27T15:32:40.610Z,32.82
2023-03-27T15:34:45.689Z,33.04
2023-03-27T15:36:50.703Z,32.71
2023-03-27T15:38:55.696Z,32.82
2023-03-27T15:41:00.754Z,32.67
2023-03-27T15:43:05.878Z,32.58
2023-03-27T15:45:10.858Z,32.51
2023-03-27T15:47:15.844Z,32.45
2023-03-27T15:49:21.038Z,32.48
2023-03-27T15:51:26.077Z,32.82
2023-03-27T15:53:31.075Z,32.99
2023-03-27T15:55:36.096Z,32.9
2023-03-27T15:57:41.243Z,33.4
2023-03-27T15:59:55.475Z,30.1
2023-03-27T16:02:00.704Z,28.5
2023-03-27T16:04:07.766Z,28.19
2023-03-27T16:06:12.834Z,27.56
2023-03-27T16:08:17.958Z,27.15
2023-03-27T16:10:22.909Z,26.9
2023-03-27T16:12:27.928Z,26.85
2023-03-27T16:14:33.102Z,26.63
2023-03-27T16:16:38.294Z,26.37
2023-03-27T16:18:43.450Z,25.84
2023-03-27T16:20:48.509Z,25.77
2023-03-27T16:22:53.549Z,25.7
2023-03-27T16:24:58.676Z,25.74
2023-03-27T16:27:03.704Z,25.61
2023-03-27T16:29:08.661Z,25.6
2023-03-27T16:31:13.899Z,24.93
2023-03-27T16:33:19.514Z,24.41
2023-03-27T16:35:24.694Z,24.2
2023-03-27T16:37:29.788Z,23.7
2023-03-27T16:39:34.766Z,23.4
2023-03-27T16:41:40.738Z,23.15
2023-03-27T16:43:45.936Z,22.85
2023-03-27T16:45:51.123Z,22.63
2023-03-27T16:47:56.589Z,22.24
2023-03-27T16:50:13.816Z,22.22
2023-03-27T16:52:19.053Z,22.06
2023-03-27T16:54:24.057Z,22.11
2023-03-27T16:56:29.095Z,21.92
2023-03-27T16:58:34.158Z,21.72
2023-03-27T17:00:39.155Z,21.7
2023-03-27T17:02:44.674Z,21.28
2023-03-27T17:04:49.930Z,22.94
2023-03-27T17:06:55.119Z,24.42
2023-03-27T17:09:00.110Z,25.6
2023-03-27T17:11:05.252Z,25.81
2023-03-27T17:13:10.255Z,26.08
2023-03-27T17:15:15.606Z,26.47
2023-03-27T17:17:20.666Z,26.53
2023-03-27T17:19:25.680Z,26.52
2023-03-27T17:21:30.608Z,26.67
2023-03-27T17:23:35.581Z,26.79
2023-03-27T17:25:40.492Z,26.77
2023-03-27T17:27:45.646Z,26.93
2023-03-27T17:29:50.613Z,27.09
2023-03-27T17:31:55.648Z,27.29
2023-03-27T17:34:00.654Z,27.32
2023-03-27T17:36:05.851Z,27.52
2023-03-27T17:38:10.856Z,27.83
2023-03-27T17:40:16.015Z,27.96
2023-03-27T17:42:20.999Z,28.75
2023-03-27T17:44:26.135Z,28.85
2023-03-27T17:46:31.511Z,29.23
2023-03-27T17:48:36.619Z,29.53
2023-03-27T17:50:41.680Z,29.22
2023-03-27T17:52:46.767Z,29.52
2023-03-27T17:54:51.827Z,29.52
2023-03-27T17:56:56.980Z,29.57
2023-03-27T17:59:02.083Z,29.8
2023-03-27T18:01:07.142Z,29.93
2023-03-27T18:03:12.344Z,29.56
2023-03-27T18:05:18.457Z,29.48
2023-03-27T18:07:23.554Z,29.49
2023-03-27T18:09:30.019Z,29.29
2023-03-27T18:11:35.117Z,29.14
2023-03-27T18:13:40.132Z,29.1
2023-03-27T18:15:45.375Z,29.41
2023-03-27T18:17:50.670Z,29.08
2023-03-27T18:19:55.642Z,29.63
2023-03-27T18:22:00.704Z,30.47
2023-03-27T18:24:05.703Z,30.16
2023-03-27T18:26:10.943Z,30.14
2023-03-27T18:28:15.990Z,30.44
2023-03-27T18:30:21.034Z,30.64
2023-03-27T18:32:26.267Z,31.02
2023-03-27T18:34:31.500Z,31.38
2023-03-27T18:36:36.581Z,31.23
2023-03-27T18:38:42.142Z,29.72
2023-03-27T18:40:47.394Z,29.65
2023-03-27T18:42:52.768Z,29.92
2023-03-27T18:44:57.917Z,29.92
2023-03-27T18:47:02.956Z,30.14
2023-03-27T18:49:26.507Z,30.08
2023-03-27T18:51:31.545Z,29.6
2023-03-27T18:53:36.648Z,28.88
2023-03-27T18:55:41.787Z,26.92
2023-03-27T18:57:46.810Z,26.61
2023-03-27T18:59:51.914Z,28.05
2023-03-27T19:01:57.130Z,28.75
2023-03-27T19:04:02.275Z,27.96
2023-03-27T19:06:07.312Z,27.73
2023-03-27T19:08:12.359Z,27.27
2023-03-27T19:10:17.467Z,26.73
2023-03-27T19:12:22.534Z,27.84
2023-03-27T19:14:27.542Z,27.61
2023-03-27T19:16:32.839Z,27.95
2023-03-27T19:18:38.019Z,28.06
2023-03-27T19:20:43.066Z,28.3
2023-03-27T19:22:48.141Z,28.79
2023-03-27T19:24:53.186Z,28.92
2023-03-27T19:26:58.203Z,29.01
2023-03-27T19:29:03.243Z,29.07
2023-03-27T19:31:08.603Z,28.84
2023-03-27T19:33:13.914Z,28.32
2023-03-27T19:35:18.974Z,27.55
2023-03-27T19:37:24.074Z,25.91
2023-03-27T19:39:29.141Z,26.94
2023-03-27T19:41:34.289Z,27.69
2023-03-27T19:43:39.370Z,27.97
2023-03-27T19:45:44.450Z,28.2
2023-03-27T19:47:49.737Z,28.28
2023-03-27T19:49:55.028Z,27.93
2023-03-27T19:52:00.119Z,26.06
2023-03-27T19:54:05.180Z,25.13
2023-03-27T19:56:10.210Z,24.67
2023-03-27T19:58:15.407Z,23.79
2023-03-27T20:00:20.469Z,23.95
2023-03-27T20:02:25.889Z,23.8
2023-03-27T20:04:31.079Z,23.73
2023-03-27T20:06:36.144Z,23.66
2023-03-27T20:08:41.324Z,23.88
2023-03-27T20:10:46.476Z,23.79
2023-03-27T20:12:51.592Z,23.77
2023-03-27T20:15:14.036Z,23.88
2023-03-27T20:17:29.385Z,23.71
2023-03-27T20:19:34.526Z,23.45
2023-03-27T20:21:39.640Z,23.47
2023-03-27T20:23:44.748Z,23.98
2023-03-27T20:25:49.868Z,23.08
2023-03-27T20:27:54.953Z,22.86
2023-03-27T20:30:00.013Z,22.73
2023-03-27T20:32:06.963Z,24.52
2023-03-27T20:34:13.878Z,25.32
2023-03-27T20:36:19.181Z,25.95
2023-03-27T20:38:24.352Z,26.08
2023-03-27T20:40:32.925Z,26.22
2023-03-27T20:42:42.060Z,26.29
2023-03-27T20:44:47.151Z,26.49
2023-03-27T20:46:55.780Z,26.55
2023-03-27T20:49:01.919Z,26.8
2023-03-27T20:51:06.992Z,26.81
2023-03-27T20:53:12.077Z,26.91
2023-03-27T20:55:37.469Z,27.13
2023-03-27T20:57:44.610Z,27.09
2023-03-27T20:59:50.275Z,27.17
2023-03-27T21:01:55.519Z,27.21
2023-03-27T21:04:01.191Z,27.13
2023-03-27T21:06:06.288Z,27.18
2023-03-27T21:08:11.315Z,27.24
2023-03-27T21:10:16.387Z,27.24
2023-03-27T21:12:21.407Z,27.19
2023-03-27T21:14:26.534Z,27.22
2023-03-27T21:16:31.853Z,27.31
2023-03-27T21:18:36.965Z,27.26
2023-03-27T21:20:42.037Z,27.33
2023-03-27T21:22:47.091Z,27.46
2023-03-27T21:24:52.175Z,27.43
2023-03-27T21:26:57.257Z,27.43
2023-03-27T21:29:02.415Z,27.48
2023-03-27T21:31:07.549Z,27.54
2023-03-27T21:33:12.581Z,27.63
2023-03-27T21:35:17.707Z,27.59
2023-03-27T21:37:22.821Z,27.68
2023-03-27T21:39:27.972Z,27.64
2023-03-27T21:41:33.132Z,27.69
2023-03-27T21:43:38.143Z,27.73
2023-03-27T21:45:43.377Z,27.76
2023-03-27T21:47:50.431Z,27.83
2023-03-27T21:49:55.454Z,27.74
2023-03-27T21:52:00.495Z,27.76
2023-03-27T21:54:05.469Z,27.82
2023-03-27T21:56:10.486Z,27.79
2023-03-27T21:58:15.527Z,27.81
2023-03-27T22:00:20.520Z,27.76
2023-03-27T22:02:25.738Z,28.03
2023-03-27T22:04:30.928Z,27.96
2023-03-27T22:06:35.961Z,28.14
2023-03-27T22:08:41.126Z,27.9
2023-03-27T22:10:46.253Z,27.95
2023-03-27T22:12:51.238Z,27.99
2023-03-27T22:14:56.455Z,28.04
2023-03-27T22:17:01.535Z,27.96
2023-03-27T22:19:06.536Z,27.96
2023-03-27T22:21:11.581Z,27.94
2023-03-27T22:23:16.586Z,27.98
2023-03-27T22:25:21.622Z,27.89
2023-03-27T22:27:26.644Z,27.98
2023-03-27T22:29:31.736Z,27.9
2023-03-27T22:31:36.838Z,28
2023-03-27T22:33:41.963Z,27.89
2023-03-27T22:35:47.113Z,27.98
2023-03-27T22:37:52.094Z,28.06
2023-03-27T22:39:57.111Z,27.97
2023-03-27T22:42:02.293Z,28
2023-03-27T22:44:07.304Z,28.07
2023-03-27T22:46:12.456Z,28.6
2023-03-27T22:48:17.576Z,28.88
2023-03-27T22:50:22.588Z,28.94
2023-03-27T22:52:27.703Z,29.1
2023-03-27T22:54:32.719Z,29.17
2023-03-27T22:56:37.801Z,29.51
2023-03-27T22:58:42.828Z,29.51
2023-03-27T23:00:47.919Z,29.58
2023-03-27T23:02:53.198Z,29.69
2023-03-27T23:04:58.309Z,29.58
2023-03-27T23:07:03.307Z,29.79
2023-03-27T23:09:08.377Z,25.89
2023-03-27T23:11:13.374Z,24.51
2023-03-27T23:13:18.569Z,24.13
2023-03-27T23:15:32.965Z,26.24
2023-03-27T23:17:38.257Z,26.09
2023-03-27T23:19:43.352Z,26.27
2023-03-27T23:21:48.347Z,27.14
2023-03-27T23:23:53.406Z,25.15
2023-03-27T23:25:59.659Z,23.84
2023-03-27T23:28:04.987Z,23.38
2023-03-27T23:30:10.050Z,23.06
2023-03-27T23:32:15.273Z,22.98
2023-03-27T23:34:20.355Z,22.94
2023-03-27T23:36:25.404Z,22.65
2023-03-27T23:38:30.516Z,22.55
2023-03-27T23:40:37.110Z,22.39
2023-03-27T23:42:42.217Z,22.4
2023-03-27T23:44:47.404Z,22.32
2023-03-27T23:46:52.435Z,22.19
2023-03-27T23:48:57.583Z,22.03
2023-03-27T23:51:02.649Z,22.06
2023-03-27T23:53:07.718Z,22.05
2023-03-27T23:55:12.740Z,21.99
2023-03-27T23:57:17.879Z,21.92
2023-03-27T23:59:23.012Z,21.82
